Rodeo de la Cruz, Argentina
Current Conditions -  °F | °C
As of 1:00 PM on Thursday 29 Jan 2015 (Local Time) from SAME Reporting Station
Few Clouds Few Clouds  
Wind Chill: 84°   Ceiling: Unl
Heat Index: 84°   Visibility: 6mi
Dew Point: 52°   Wind: 12mph
Humidity: 33%   Direction: 70°ENE
Pressure: 30"   Gusts: NA
Location:  32.92°S, 68.73°W
Report Text: SAME 291600Z 07010KT 9999 FEW045 29/11 Q1016
Loading
Personal Weather Stations






























Interactive Weather Map New forecast layout! Learn more

10-Day Weather Forecast

Advertisements
Track Severe Weather on mobile